Airport View

Enter AWOS ICAO identifier for current METAR.

ex. KFNL

KFLY 080755Z AUTO 34005KT 10SM CLR 08/M14 A3008 RMK AO2 T00811136

8 Apr 2020 08:10

Frequency: 118.450

Phone: 719-683-5371

Other Area AWOS: KCOS - KAFF - KMNH - KFCS

TAF KCOS 080538Z 0806/0906 01008KT P6SM FEW150 FM081800 12008G18KT P6SM SCT110 FM090200 05008KT P6SM SCT100